Deline, Canada
Current Conditions -  °F | °C
As of 4:00 PM on Monday 20 Oct 2014 (Local Time) from CYVQ Reporting Station
Snow Showers Snow Showers  
Wind Chill: 21°   Ceiling: 2000
Heat Index: 30°   Visibility: 10mi
Dew Point: 28°   Wind: 10mph
Humidity: 93%   Direction: 290°WNW
Pressure: 29.32"   Gusts: 17mph
Location:  65.18°N, 123.42°W
Report Text: CYVQ 202200Z 29009G15KT 10SM -SHSN BKN020 OVC050 M01/M02 A2932 RMK SC6SC2 SLP935
Loading
Personal Weather Stations






























Interactive Weather Map
Tropical Storm Tracking
New forecast layout! Learn more

10-Day Weather Forecast

Advertisements
Track Severe Weather on mobile